Cody, WY

8:49 AM MDT on October 01, 2014 (GMT -0600)
Cody WY, Cody DITWIT Weather @5230 ft | Change Station
CLOSE
Current Station
Personal Weather Station
Location: Cody, WY
Elevation: 5135 ft
Nearby Weather Stations

Elev 5135 ft 44.49 °N, 108.99 °W | Updated 7 seconds ago

Mostly Cloudy
Mostly Cloudy
42.6 °F
Feels Like 43 °F
N
3.0
Wind Variable Wind from North
Gusts 4.0 mph

Today
High -- | Low -- °F
--% Chance of Precip.
Yesterday
High -- | Low -- °F
Precip. -- in
7:14 AM 6:56 PM
Waxing Crescent, 48% visible
Pressure 29.78 in
Visibility 10.0 miles
Clouds Mostly Cloudy 11000 ft
Windchill 43 °F
Dew Point 38 °F
Humidity 84%
Rainfall 0.06 in
Snow Depth 1 in , 1 in , 0 in
UV 1 out of 12
Pollen 3.00 out of 12
Air Quality Not available.
Flu Activity Not available.
METAR KCOD 301455Z AUTO 02003KT 10SM BKN110 11/04 A2978 RMK AO1 52003

More Conditions Fewer Conditions

Pressure 29.78 in
Visibility 10.0 miles
Clouds Mostly Cloudy 11000 ft
Windchill 43 °F
Dew Point 38 °F
Humidity 84%
Rainfall 0.06 in
Snow Depth 1 in , 1 in , 0 in
UV 1 out of 12
Pollen 3.00 out of 12
Air Quality Not available.
Flu Activity Not available.
METAR KCOD 301455Z AUTO 02003KT 10SM BKN110 11/04 A2978 RMK AO1 52003

More Conditions Fewer Conditions

10-Day Weather Forecast

Almanac

Astronomy

Oct. 01, 2014 Rise Set
Actual Time 7:14 AM MDT 6:56 PM MDT
Civil Twilight 6:45 AM MDT 7:25 PM MDT
Nautical Twilight 6:11 AM MDT 7:59 PM MDT
Astronomical Twilight 5:37 AM MDT 8:33 PM MDT
Moon 2:27 PM MDT No Moon Set
Length of Visible Light 12h 40m
Length of Day
11h 42m
Tomorrow will be 3m 4s shorter.
Waxing Crescent, 48% of the Moon is Illuminated
Today
Waxing Crescent
Oct 1
First Quarter
Oct 8
Full
Oct 15
Last Quarter
Oct 23
New

Today's Extremes

State Highs State Lows

Community

WunderPhotos

Upload Photos

1,757,960 photos uploaded!

Nearby

Snow Depth

Station Depth Elevation
Kelley R.S. 1 in 8180 ft
Crow Creek 1 in 8330 ft
South Brush Creek 0 in 8440 ft
Snider Basin 0 in 8060 ft
East Rim Divide 0 in 7930 ft

Earthquake Activity

City Distance Mag. Time & Date
No recent earthquake activity has been reported nearby.
Minimum magnitude displayed is 2.5.

Coastal Water Temperatures

Place Temperature
No Stations Reporting

Nearby Weather Stations